sensor_id;sensor_type;location;lat;lon;timestamp;temperature;humidity
13898;DHT22;7019;50.766;4.474;2022-07-11T00:01:48;14.80;99.90
13898;DHT22;7019;50.766;4.474;2022-07-11T00:04:15;14.70;99.90
13898;DHT22;7019;50.766;4.474;2022-07-11T00:06:42;14.70;99.90
13898;DHT22;7019;50.766;4.474;2022-07-11T00:09:10;14.60;99.90
13898;DHT22;7019;50.766;4.474;2022-07-11T00:11:37;14.60;99.90
13898;DHT22;7019;50.766;4.474;2022-07-11T00:14:05;14.60;99.90
13898;DHT22;7019;50.766;4.474;2022-07-11T00:16:32;14.50;99.90
13898;DHT22;7019;50.766;4.474;2022-07-11T00:19:00;14.50;99.90
13898;DHT22;7019;50.766;4.474;2022-07-11T00:21:27;14.50;99.90
13898;DHT22;7019;50.766;4.474;2022-07-11T00:23:54;14.40;99.90
13898;DHT22;7019;50.766;4.474;2022-07-11T00:26:24;14.40;99.90
13898;DHT22;7019;50.766;4.474;2022-07-11T00:28:51;14.40;99.90
13898;DHT22;7019;50.766;4.474;2022-07-11T00:31:18;14.30;99.90
13898;DHT22;7019;50.766;4.474;2022-07-11T00:33:45;14.30;99.90
13898;DHT22;7019;50.766;4.474;2022-07-11T00:36:12;14.30;99.90
13898;DHT22;7019;50.766;4.474;2022-07-11T00:38:39;14.30;99.90
13898;DHT22;7019;50.766;4.474;2022-07-11T00:41:06;14.30;99.90
13898;DHT22;7019;50.766;4.474;2022-07-11T00:43:39;14.30;99.90
13898;DHT22;7019;50.766;4.474;2022-07-11T00:46:07;14.30;99.90
13898;DHT22;7019;50.766;4.474;2022-07-11T00:48:35;14.20;99.90
13898;DHT22;7019;50.766;4.474;2022-07-11T00:51:03;14.20;99.90
13898;DHT22;7019;50.766;4.474;2022-07-11T00:53:31;14.20;99.90
13898;DHT22;7019;50.766;4.474;2022-07-11T00:56:00;14.20;99.90
13898;DHT22;7019;50.766;4.474;2022-07-11T00:58:28;14.10;99.90
13898;DHT22;7019;50.766;4.474;2022-07-11T01:00:57;14.10;99.90
13898;DHT22;7019;50.766;4.474;2022-07-11T01:03:24;14.10;99.90
13898;DHT22;7019;50.766;4.474;2022-07-11T01:05:51;14.10;99.90
13898;DHT22;7019;50.766;4.474;2022-07-11T01:08:18;14.10;99.90
13898;DHT22;7019;50.766;4.474;2022-07-11T01:10:46;14.10;99.90
13898;DHT22;7019;50.766;4.474;2022-07-11T01:13:13;14.00;99.90
13898;DHT22;7019;50.766;4.474;2022-07-11T01:15:40;14.00;99.90
13898;DHT22;7019;50.766;4.474;2022-07-11T01:18:09;14.00;99.90
13898;DHT22;7019;50.766;4.474;2022-07-11T01:20:35;14.00;99.90
13898;DHT22;7019;50.766;4.474;2022-07-11T01:23:05;14.00;99.90
13898;DHT22;7019;50.766;4.474;2022-07-11T01:25:33;14.00;99.90
13898;DHT22;7019;50.766;4.474;2022-07-11T01:28:02;14.00;99.90
13898;DHT22;7019;50.766;4.474;2022-07-11T01:30:30;14.00;99.90
13898;DHT22;7019;50.766;4.474;2022-07-11T01:32:58;14.00;99.90
13898;DHT22;7019;50.766;4.474;2022-07-11T01:35:27;14.00;99.90
13898;DHT22;7019;50.766;4.474;2022-07-11T01:37:54;13.90;99.90
13898;DHT22;7019;50.766;4.474;2022-07-11T01:40:22;13.90;99.90
13898;DHT22;7019;50.766;4.474;2022-07-11T01:42:49;13.90;99.90
13898;DHT22;7019;50.766;4.474;2022-07-11T01:45:16;13.90;99.90
13898;DHT22;7019;50.766;4.474;2022-07-11T01:47:43;13.90;99.90
13898;DHT22;7019;50.766;4.474;2022-07-11T01:50:10;13.90;99.90
13898;DHT22;7019;50.766;4.474;2022-07-11T01:52:37;13.90;99.90
13898;DHT22;7019;50.766;4.474;2022-07-11T01:55:07;13.80;99.90
13898;DHT22;7019;50.766;4.474;2022-07-11T01:57:35;13.80;99.90
13898;DHT22;7019;50.766;4.474;2022-07-11T02:00:03;13.80;99.90
13898;DHT22;7019;50.766;4.474;2022-07-11T02:02:32;13.80;99.90
13898;DHT22;7019;50.766;4.474;2022-07-11T02:04:59;13.80;99.90
13898;DHT22;7019;50.766;4.474;2022-07-11T02:07:26;13.80;99.90
13898;DHT22;7019;50.766;4.474;2022-07-11T02:10:08;13.80;99.90
13898;DHT22;7019;50.766;4.474;2022-07-11T02:12:37;13.70;99.90
13898;DHT22;7019;50.766;4.474;2022-07-11T02:15:05;13.70;99.90
13898;DHT22;7019;50.766;4.474;2022-07-11T02:17:32;13.70;99.90
13898;DHT22;7019;50.766;4.474;2022-07-11T02:19:59;13.70;99.90
13898;DHT22;7019;50.766;4.474;2022-07-11T02:22:26;13.70;99.90
13898;DHT22;7019;50.766;4.474;2022-07-11T02:24:55;13.60;99.90
13898;DHT22;7019;50.766;4.474;2022-07-11T02:27:22;13.60;99.90
13898;DHT22;7019;50.766;4.474;2022-07-11T02:29:51;13.60;99.90
13898;DHT22;7019;50.766;4.474;2022-07-11T02:32:18;13.60;99.90
13898;DHT22;7019;50.766;4.474;2022-07-11T02:34:45;13.50;99.90
13898;DHT22;7019;50.766;4.474;2022-07-11T02:37:12;13.50;99.90
13898;DHT22;7019;50.766;4.474;2022-07-11T02:39:39;13.50;99.90
13898;DHT22;7019;50.766;4.474;2022-07-11T02:42:06;13.50;99.90
13898;DHT22;7019;50.766;4.474;2022-07-11T02:44:33;13.50;99.90
13898;DHT22;7019;50.766;4.474;2022-07-11T02:47:01;13.50;99.90
13898;DHT22;7019;50.766;4.474;2022-07-11T02:49:28;13.50;99.90
13898;DHT22;7019;50.766;4.474;2022-07-11T02:51:56;13.50;99.90
13898;DHT22;7019;50.766;4.474;2022-07-11T02:54:23;13.50;99.90
13898;DHT22;7019;50.766;4.474;2022-07-11T02:56:50;13.50;99.90
13898;DHT22;7019;50.766;4.474;2022-07-11T02:59:17;13.50;99.90
13898;DHT22;7019;50.766;4.474;2022-07-11T03:01:44;13.50;99.90
13898;DHT22;7019;50.766;4.474;2022-07-11T03:04:13;13.50;99.90
13898;DHT22;7019;50.766;4.474;2022-07-11T03:06:40;13.50;99.90
13898;DHT22;7019;50.766;4.474;2022-07-11T03:09:08;13.50;99.90
13898;DHT22;7019;50.766;4.474;2022-07-11T03:11:36;13.40;99.90
13898;DHT22;7019;50.766;4.474;2022-07-11T03:14:03;13.40;99.90
13898;DHT22;7019;50.766;4.474;2022-07-11T03:16:30;13.40;99.90
13898;DHT22;7019;50.766;4.474;2022-07-11T03:18:58;13.40;99.90
13898;DHT22;7019;50.766;4.474;2022-07-11T03:21:26;13.40;99.90
13898;DHT22;7019;50.766;4.474;2022-07-11T03:23:53;13.40;99.90
13898;DHT22;7019;50.766;4.474;2022-07-11T03:26:20;13.40;99.90
13898;DHT22;7019;50.766;4.474;2022-07-11T03:28:47;13.40;99.90
13898;DHT22;7019;50.766;4.474;2022-07-11T03:31:14;13.40;99.90
13898;DHT22;7019;50.766;4.474;2022-07-11T03:33:41;13.40;99.90
13898;DHT22;7019;50.766;4.474;2022-07-11T03:36:08;13.40;99.90
13898;DHT22;7019;50.766;4.474;2022-07-11T03:38:37;13.30;99.90
13898;DHT22;7019;50.766;4.474;2022-07-11T03:41:04;13.30;99.90
13898;DHT22;7019;50.766;4.474;2022-07-11T03:43:31;13.30;99.90
13898;DHT22;7019;50.766;4.474;2022-07-11T03:45:58;13.30;99.90
13898;DHT22;7019;50.766;4.474;2022-07-11T03:48:25;13.30;99.90
13898;DHT22;7019;50.766;4.474;2022-07-11T03:50:52;13.20;99.90
13898;DHT22;7019;50.766;4.474;2022-07-11T03:53:19;13.30;99.90
13898;DHT22;7019;50.766;4.474;2022-07-11T03:55:48;13.10;99.90
13898;DHT22;7019;50.766;4.474;2022-07-11T03:58:15;13.00;99.90
13898;DHT22;7019;50.766;4.474;2022-07-11T04:00:42;12.90;99.90
13898;DHT22;7019;50.766;4.474;2022-07-11T04:03:09;12.90;99.90
13898;DHT22;7019;50.766;4.474;2022-07-11T04:05:36;13.00;99.90
13898;DHT22;7019;50.766;4.474;2022-07-11T04:08:04;13.10;99.90
13898;DHT22;7019;50.766;4.474;2022-07-11T04:10:31;13.10;99.90
13898;DHT22;7019;50.766;4.474;2022-07-11T04:12:59;13.20;99.90
13898;DHT22;7019;50.766;4.474;2022-07-11T04:15:26;13.20;99.90
13898;DHT22;7019;50.766;4.474;2022-07-11T04:17:53;13.30;99.90
13898;DHT22;7019;50.766;4.474;2022-07-11T04:20:20;13.30;99.90
13898;DHT22;7019;50.766;4.474;2022-07-11T04:22:47;13.20;99.90
13898;DHT22;7019;50.766;4.474;2022-07-11T04:25:14;13.20;99.90
13898;DHT22;7019;50.766;4.474;2022-07-11T04:27:42;13.10;99.90
13898;DHT22;7019;50.766;4.474;2022-07-11T04:30:11;13.20;99.90
13898;DHT22;7019;50.766;4.474;2022-07-11T04:32:38;13.30;99.90
13898;DHT22;7019;50.766;4.474;2022-07-11T04:35:06;13.30;99.90
13898;DHT22;7019;50.766;4.474;2022-07-11T04:37:33;13.40;99.90
13898;DHT22;7019;50.766;4.474;2022-07-11T04:40:00;13.40;99.90
13898;DHT22;7019;50.766;4.474;2022-07-11T04:42:27;13.50;99.90
13898;DHT22;7019;50.766;4.474;2022-07-11T04:44:54;13.60;99.90
13898;DHT22;7019;50.766;4.474;2022-07-11T04:47:23;13.60;99.90
13898;DHT22;7019;50.766;4.474;2022-07-11T04:49:50;13.60;99.90
13898;DHT22;7019;50.766;4.474;2022-07-11T04:52:17;13.60;99.90
13898;DHT22;7019;50.766;4.474;2022-07-11T04:54:44;13.70;99.90
13898;DHT22;7019;50.766;4.474;2022-07-11T04:57:11;13.70;99.90
13898;DHT22;7019;50.766;4.474;2022-07-11T04:59:38;13.70;99.90
13898;DHT22;7019;50.766;4.474;2022-07-11T05:02:05;13.80;99.90
13898;DHT22;7019;50.766;4.474;2022-07-11T05:04:34;13.90;99.90
13898;DHT22;7019;50.766;4.474;2022-07-11T05:07:01;14.10;99.90
13898;DHT22;7019;50.766;4.474;2022-07-11T05:09:29;14.20;99.90
13898;DHT22;7019;50.766;4.474;2022-07-11T05:11:56;14.30;99.90
13898;DHT22;7019;50.766;4.474;2022-07-11T05:14:23;14.30;99.90
13898;DHT22;7019;50.766;4.474;2022-07-11T05:16:50;14.30;99.90
13898;DHT22;7019;50.766;4.474;2022-07-11T05:19:17;14.30;99.90
13898;DHT22;7019;50.766;4.474;2022-07-11T05:21:45;14.40;99.90
13898;DHT22;7019;50.766;4.474;2022-07-11T05:24:12;14.40;99.90
13898;DHT22;7019;50.766;4.474;2022-07-11T05:26:39;14.40;99.90
13898;DHT22;7019;50.766;4.474;2022-07-11T05:29:07;14.40;99.90
13898;DHT22;7019;50.766;4.474;2022-07-11T05:31:34;14.50;99.90
13898;DHT22;7019;50.766;4.474;2022-07-11T05:34:01;14.50;99.90
13898;DHT22;7019;50.766;4.474;2022-07-11T05:36:28;14.60;99.90
13898;DHT22;7019;50.766;4.474;2022-07-11T05:38:57;14.60;99.90
13898;DHT22;7019;50.766;4.474;2022-07-11T05:41:24;14.60;99.90
13898;DHT22;7019;50.766;4.474;2022-07-11T05:43:51;14.70;99.90
13898;DHT22;7019;50.766;4.474;2022-07-11T05:46:18;14.70;99.90
13898;DHT22;7019;50.766;4.474;2022-07-11T05:48:45;14.80;99.90
13898;DHT22;7019;50.766;4.474;2022-07-11T05:51:12;14.90;99.90
13898;DHT22;7019;50.766;4.474;2022-07-11T05:53:39;15.00;99.90
13898;DHT22;7019;50.766;4.474;2022-07-11T05:56:08;15.20;99.90
13898;DHT22;7019;50.766;4.474;2022-07-11T05:58:35;15.30;99.90
13898;DHT22;7019;50.766;4.474;2022-07-11T06:01:02;15.40;99.90
13898;DHT22;7019;50.766;4.474;2022-07-11T06:03:29;15.60;99.90
13898;DHT22;7019;50.766;4.474;2022-07-11T06:05:56;15.80;99.90
13898;DHT22;7019;50.766;4.474;2022-07-11T06:08:23;16.00;99.90
13898;DHT22;7019;50.766;4.474;2022-07-11T06:11:11;16.20;99.90
13898;DHT22;7019;50.766;4.474;2022-07-11T06:13:38;16.50;99.90
13898;DHT22;7019;50.766;4.474;2022-07-11T06:16:07;16.80;99.90
13898;DHT22;7019;50.766;4.474;2022-07-11T06:18:35;17.10;99.90
13898;DHT22;7019;50.766;4.474;2022-07-11T06:21:03;17.50;99.90
13898;DHT22;7019;50.766;4.474;2022-07-11T06:23:30;18.00;99.90
13898;DHT22;7019;50.766;4.474;2022-07-11T06:25:59;18.70;99.90
13898;DHT22;7019;50.766;4.474;2022-07-11T06:28:27;19.60;99.90
13898;DHT22;7019;50.766;4.474;2022-07-11T06:30:55;20.20;99.90
13898;DHT22;7019;50.766;4.474;2022-07-11T06:33:22;20.80;99.90
13898;DHT22;7019;50.766;4.474;2022-07-11T06:35:49;21.40;99.90
13898;DHT22;7019;50.766;4.474;2022-07-11T06:38:16;21.80;99.90
13898;DHT22;7019;50.766;4.474;2022-07-11T06:40:44;22.30;99.90
13898;DHT22;7019;50.766;4.474;2022-07-11T06:43:12;22.50;99.90
13898;DHT22;7019;50.766;4.474;2022-07-11T06:45:41;23.00;99.90
13898;DHT22;7019;50.766;4.474;2022-07-11T06:48:08;23.30;99.90
13898;DHT22;7019;50.766;4.474;2022-07-11T06:50:35;23.60;99.90
13898;DHT22;7019;50.766;4.474;2022-07-11T06:53:02;24.00;99.90
13898;DHT22;7019;50.766;4.474;2022-07-11T06:55:29;24.20;99.90
13898;DHT22;7019;50.766;4.474;2022-07-11T06:57:56;24.50;99.90
13898;DHT22;7019;50.766;4.474;2022-07-11T07:00:23;24.60;99.90
13898;DHT22;7019;50.766;4.474;2022-07-11T07:02:53;24.90;99.90
13898;DHT22;7019;50.766;4.474;2022-07-11T07:05:20;25.30;99.90
13898;DHT22;7019;50.766;4.474;2022-07-11T07:07:48;25.10;99.90
13898;DHT22;7019;50.766;4.474;2022-07-11T07:10:15;24.90;99.90
13898;DHT22;7019;50.766;4.474;2022-07-11T07:12:42;24.20;99.90
13898;DHT22;7019;50.766;4.474;2022-07-11T07:15:10;23.20;99.90
13898;DHT22;7019;50.766;4.474;2022-07-11T07:17:38;23.10;99.90
13898;DHT22;7019;50.766;4.474;2022-07-11T07:20:07;23.60;99.90
13898;DHT22;7019;50.766;4.474;2022-07-11T07:22:36;24.30;99.90
13898;DHT22;7019;50.766;4.474;2022-07-11T07:25:06;25.00;99.90
13898;DHT22;7019;50.766;4.474;2022-07-11T07:27:33;25.40;99.90
13898;DHT22;7019;50.766;4.474;2022-07-11T07:30:00;25.70;99.90
13898;DHT22;7019;50.766;4.474;2022-07-11T07:32:28;25.60;99.90
13898;DHT22;7019;50.766;4.474;2022-07-11T07:34:55;25.60;99.90
13898;DHT22;7019;50.766;4.474;2022-07-11T07:37:23;26.20;99.90
13898;DHT22;7019;50.766;4.474;2022-07-11T07:39:50;26.50;99.90
13898;DHT22;7019;50.766;4.474;2022-07-11T07:42:17;26.70;99.90
13898;DHT22;7019;50.766;4.474;2022-07-11T07:44:44;27.00;99.90
13898;DHT22;7019;50.766;4.474;2022-07-11T07:47:11;27.10;99.90
13898;DHT22;7019;50.766;4.474;2022-07-11T07:49:38;26.60;99.90
13898;DHT22;7019;50.766;4.474;2022-07-11T07:52:05;26.90;99.90
13898;DHT22;7019;50.766;4.474;2022-07-11T07:54:34;26.90;99.90
13898;DHT22;7019;50.766;4.474;2022-07-11T07:57:01;27.10;99.90
13898;DHT22;7019;50.766;4.474;2022-07-11T07:59:28;26.40;99.90
13898;DHT22;7019;50.766;4.474;2022-07-11T08:01:55;26.80;99.90
13898;DHT22;7019;50.766;4.474;2022-07-11T08:04:21;26.90;99.90
13898;DHT22;7019;50.766;4.474;2022-07-11T08:06:48;27.50;99.90
13898;DHT22;7019;50.766;4.474;2022-07-11T08:09:15;27.60;99.90
13898;DHT22;7019;50.766;4.474;2022-07-11T08:11:43;27.50;99.90
13898;DHT22;7019;50.766;4.474;2022-07-11T08:14:10;27.20;99.90
13898;DHT22;7019;50.766;4.474;2022-07-11T08:16:37;27.10;99.90
13898;DHT22;7019;50.766;4.474;2022-07-11T08:19:05;27.10;99.90
13898;DHT22;7019;50.766;4.474;2022-07-11T08:21:33;27.70;99.90
13898;DHT22;7019;50.766;4.474;2022-07-11T08:24:01;27.60;99.90
13898;DHT22;7019;50.766;4.474;2022-07-11T08:26:29;28.30;99.90
13898;DHT22;7019;50.766;4.474;2022-07-11T08:28:58;29.20;99.90
13898;DHT22;7019;50.766;4.474;2022-07-11T08:31:25;29.60;99.90
13898;DHT22;7019;50.766;4.474;2022-07-11T08:33:52;29.70;99.70
13898;DHT22;7019;50.766;4.474;2022-07-11T08:36:19;29.20;99.70
13898;DHT22;7019;50.766;4.474;2022-07-11T08:38:46;29.30;99.90
13898;DHT22;7019;50.766;4.474;2022-07-11T08:41:14;29.30;99.90
13898;DHT22;7019;50.766;4.474;2022-07-11T08:43:44;29.20;99.30
13898;DHT22;7019;50.766;4.474;2022-07-11T08:46:14;29.60;99.10
13898;DHT22;7019;50.766;4.474;2022-07-11T08:48:41;29.60;98.80
13898;DHT22;7019;50.766;4.474;2022-07-11T08:51:09;29.10;99.00
13898;DHT22;7019;50.766;4.474;2022-07-11T08:53:41;29.10;99.20
13898;DHT22;7019;50.766;4.474;2022-07-11T08:56:10;28.60;99.20
13898;DHT22;7019;50.766;4.474;2022-07-11T08:58:43;27.70;99.90
13898;DHT22;7019;50.766;4.474;2022-07-11T09:01:13;27.80;99.90
13898;DHT22;7019;50.766;4.474;2022-07-11T09:03:42;28.50;99.90
13898;DHT22;7019;50.766;4.474;2022-07-11T09:06:10;28.60;99.70
13898;DHT22;7019;50.766;4.474;2022-07-11T09:08:37;28.80;99.70
13898;DHT22;7019;50.766;4.474;2022-07-11T09:11:04;29.20;99.40
13898;DHT22;7019;50.766;4.474;2022-07-11T09:13:32;28.80;99.30
13898;DHT22;7019;50.766;4.474;2022-07-11T09:16:03;28.50;99.60
13898;DHT22;7019;50.766;4.474;2022-07-11T09:18:34;28.70;99.60
13898;DHT22;7019;50.766;4.474;2022-07-11T09:21:03;29.40;99.10
13898;DHT22;7019;50.766;4.474;2022-07-11T09:23:49;28.60;99.60
13898;DHT22;7019;50.766;4.474;2022-07-11T09:26:35;28.00;99.90
13898;DHT22;7019;50.766;4.474;2022-07-11T09:29:06;28.60;99.90
13898;DHT22;7019;50.766;4.474;2022-07-11T09:31:35;29.20;99.30
13898;DHT22;7019;50.766;4.474;2022-07-11T09:34:05;29.50;98.90
13898;DHT22;7019;50.766;4.474;2022-07-11T09:36:42;29.40;98.90
13898;DHT22;7019;50.766;4.474;2022-07-11T09:39:14;30.10;98.60
13898;DHT22;7019;50.766;4.474;2022-07-11T09:41:42;30.50;98.60
13898;DHT22;7019;50.766;4.474;2022-07-11T09:44:11;30.60;98.90
13898;DHT22;7019;50.766;4.474;2022-07-11T09:46:39;31.10;97.80
13898;DHT22;7019;50.766;4.474;2022-07-11T09:49:08;30.80;97.30
13898;DHT22;7019;50.766;4.474;2022-07-11T09:51:36;30.50;98.10
13898;DHT22;7019;50.766;4.474;2022-07-11T09:54:04;29.90;97.70
13898;DHT22;7019;50.766;4.474;2022-07-11T09:56:38;29.10;98.60
13898;DHT22;7019;50.766;4.474;2022-07-11T09:59:07;29.00;99.00
13898;DHT22;7019;50.766;4.474;2022-07-11T10:01:34;29.60;99.00
13898;DHT22;7019;50.766;4.474;2022-07-11T10:04:03;29.70;98.60
13898;DHT22;7019;50.766;4.474;2022-07-11T10:06:32;29.60;98.40
13898;DHT22;7019;50.766;4.474;2022-07-11T10:08:59;29.40;98.70
13898;DHT22;7019;50.766;4.474;2022-07-11T10:11:27;29.10;99.40
13898;DHT22;7019;50.766;4.474;2022-07-11T10:13:54;29.00;99.00
13898;DHT22;7019;50.766;4.474;2022-07-11T10:16:27;29.00;99.80
13898;DHT22;7019;50.766;4.474;2022-07-11T10:19:15;28.80;99.90
13898;DHT22;7019;50.766;4.474;2022-07-11T10:21:53;29.10;99.90
13898;DHT22;7019;50.766;4.474;2022-07-11T10:24:31;28.90;99.70
13898;DHT22;7019;50.766;4.474;2022-07-11T10:27:04;29.80;99.10
13898;DHT22;7019;50.766;4.474;2022-07-11T10:29:36;29.70;98.50
13898;DHT22;7019;50.766;4.474;2022-07-11T10:32:06;28.00;99.90
13898;DHT22;7019;50.766;4.474;2022-07-11T10:34:34;27.10;99.90
13898;DHT22;7019;50.766;4.474;2022-07-11T10:37:03;26.80;99.90
13898;DHT22;7019;50.766;4.474;2022-07-11T10:39:31;27.20;99.90
13898;DHT22;7019;50.766;4.474;2022-07-11T10:42:02;28.20;99.90
13898;DHT22;7019;50.766;4.474;2022-07-11T10:44:47;28.80;99.90
13898;DHT22;7019;50.766;4.474;2022-07-11T10:47:33;29.30;99.60
13898;DHT22;7019;50.766;4.474;2022-07-11T10:50:11;29.40;99.80
13898;DHT22;7019;50.766;4.474;2022-07-11T10:52:42;29.10;99.50
13898;DHT22;7019;50.766;4.474;2022-07-11T10:55:23;29.40;99.00
13898;DHT22;7019;50.766;4.474;2022-07-11T10:58:05;28.70;99.90
13898;DHT22;7019;50.766;4.474;2022-07-11T11:00:32;28.30;99.90
13898;DHT22;7019;50.766;4.474;2022-07-11T11:03:02;28.70;99.90
13898;DHT22;7019;50.766;4.474;2022-07-11T11:05:48;28.90;99.90
13898;DHT22;7019;50.766;4.474;2022-07-11T11:08:44;28.20;99.80
13898;DHT22;7019;50.766;4.474;2022-07-11T11:11:34;27.70;99.90
13898;DHT22;7019;50.766;4.474;2022-07-11T11:14:21;27.60;99.90
13898;DHT22;7019;50.766;4.474;2022-07-11T11:16:49;27.40;99.90
13898;DHT22;7019;50.766;4.474;2022-07-11T11:19:54;28.00;99.90
13898;DHT22;7019;50.766;4.474;2022-07-11T11:22:23;28.30;99.90
13898;DHT22;7019;50.766;4.474;2022-07-11T11:24:53;28.40;99.90
13898;DHT22;7019;50.766;4.474;2022-07-11T11:27:21;28.20;99.90
13898;DHT22;7019;50.766;4.474;2022-07-11T11:29:54;28.00;99.90
13898;DHT22;7019;50.766;4.474;2022-07-11T11:32:22;27.80;99.90
13898;DHT22;7019;50.766;4.474;2022-07-11T11:34:55;27.40;99.90
13898;DHT22;7019;50.766;4.474;2022-07-11T11:37:23;27.30;99.90
13898;DHT22;7019;50.766;4.474;2022-07-11T11:39:57;27.00;99.90
13898;DHT22;7019;50.766;4.474;2022-07-11T11:42:24;26.90;99.90
13898;DHT22;7019;50.766;4.474;2022-07-11T11:44:53;27.00;99.90
13898;DHT22;7019;50.766;4.474;2022-07-11T11:47:21;27.90;99.90
13898;DHT22;7019;50.766;4.474;2022-07-11T11:49:49;28.30;99.90
13898;DHT22;7019;50.766;4.474;2022-07-11T11:52:17;28.10;99.90
13898;DHT22;7019;50.766;4.474;2022-07-11T11:54:52;28.00;99.90
13898;DHT22;7019;50.766;4.474;2022-07-11T11:57:21;27.50;99.90
13898;DHT22;7019;50.766;4.474;2022-07-11T11:59:49;27.50;99.90
13898;DHT22;7019;50.766;4.474;2022-07-11T12:02:22;27.80;99.90
13898;DHT22;7019;50.766;4.474;2022-07-11T12:04:49;28.10;99.90
13898;DHT22;7019;50.766;4.474;2022-07-11T12:07:22;28.10;99.90
13898;DHT22;7019;50.766;4.474;2022-07-11T12:09:50;28.60;99.90
13898;DHT22;7019;50.766;4.474;2022-07-11T12:12:24;28.80;99.90
13898;DHT22;7019;50.766;4.474;2022-07-11T12:15:23;29.10;99.90
13898;DHT22;7019;50.766;4.474;2022-07-11T12:17:52;29.70;99.50
13898;DHT22;7019;50.766;4.474;2022-07-11T12:20:40;29.70;99.20
13898;DHT22;7019;50.766;4.474;2022-07-11T12:23:12;29.80;99.90
13898;DHT22;7019;50.766;4.474;2022-07-11T12:25:39;30.40;99.90
13898;DHT22;7019;50.766;4.474;2022-07-11T12:28:08;30.70;99.90
13898;DHT22;7019;50.766;4.474;2022-07-11T12:30:36;30.30;99.10
13898;DHT22;7019;50.766;4.474;2022-07-11T12:33:05;29.30;99.10
13898;DHT22;7019;50.766;4.474;2022-07-11T12:35:32;28.90;99.90
13898;DHT22;7019;50.766;4.474;2022-07-11T12:38:00;29.10;99.90
13898;DHT22;7019;50.766;4.474;2022-07-11T12:40:27;29.00;99.90
13898;DHT22;7019;50.766;4.474;2022-07-11T12:42:54;29.20;99.90
13898;DHT22;7019;50.766;4.474;2022-07-11T12:45:22;29.60;99.60
13898;DHT22;7019;50.766;4.474;2022-07-11T12:47:50;29.10;99.50
13898;DHT22;7019;50.766;4.474;2022-07-11T12:50:20;28.20;99.90
13898;DHT22;7019;50.766;4.474;2022-07-11T12:52:49;28.10;99.90
13898;DHT22;7019;50.766;4.474;2022-07-11T12:55:21;27.70;99.90
13898;DHT22;7019;50.766;4.474;2022-07-11T12:58:06;28.00;99.90
13898;DHT22;7019;50.766;4.474;2022-07-11T13:00:37;28.70;99.90
13898;DHT22;7019;50.766;4.474;2022-07-11T13:03:06;29.10;99.90
13898;DHT22;7019;50.766;4.474;2022-07-11T13:05:57;29.40;99.50
13898;DHT22;7019;50.766;4.474;2022-07-11T13:08:25;29.50;99.90
13898;DHT22;7019;50.766;4.474;2022-07-11T13:11:10;30.10;98.60
13898;DHT22;7019;50.766;4.474;2022-07-11T13:13:38;29.80;98.30
13898;DHT22;7019;50.766;4.474;2022-07-11T13:16:07;29.50;99.20
13898;DHT22;7019;50.766;4.474;2022-07-11T13:18:34;30.00;99.00
13898;DHT22;7019;50.766;4.474;2022-07-11T13:21:01;29.50;98.60
13898;DHT22;7019;50.766;4.474;2022-07-11T13:23:29;29.20;98.90
13898;DHT22;7019;50.766;4.474;2022-07-11T13:25:56;28.50;99.50
13898;DHT22;7019;50.766;4.474;2022-07-11T13:28:23;28.30;99.00
13898;DHT22;7019;50.766;4.474;2022-07-11T13:30:51;28.10;99.40
13898;DHT22;7019;50.766;4.474;2022-07-11T13:33:20;28.10;97.80
13898;DHT22;7019;50.766;4.474;2022-07-11T13:35:48;28.30;98.50
13898;DHT22;7019;50.766;4.474;2022-07-11T13:38:16;28.70;99.10
13898;DHT22;7019;50.766;4.474;2022-07-11T13:40:43;28.80;98.40
13898;DHT22;7019;50.766;4.474;2022-07-11T13:43:10;28.10;98.70
13898;DHT22;7019;50.766;4.474;2022-07-11T13:45:38;28.30;99.50
13898;DHT22;7019;50.766;4.474;2022-07-11T13:48:05;28.80;99.90
13898;DHT22;7019;50.766;4.474;2022-07-11T13:50:34;29.20;98.60
13898;DHT22;7019;50.766;4.474;2022-07-11T13:53:01;29.30;97.30
13898;DHT22;7019;50.766;4.474;2022-07-11T13:55:28;29.20;98.00
13898;DHT22;7019;50.766;4.474;2022-07-11T13:57:56;29.60;97.30
13898;DHT22;7019;50.766;4.474;2022-07-11T14:00:24;29.40;96.90
13898;DHT22;7019;50.766;4.474;2022-07-11T14:02:52;29.30;97.40
13898;DHT22;7019;50.766;4.474;2022-07-11T14:05:19;28.90;98.10
13898;DHT22;7019;50.766;4.474;2022-07-11T14:07:48;29.10;98.00
13898;DHT22;7019;50.766;4.474;2022-07-11T14:10:15;28.70;98.50
13898;DHT22;7019;50.766;4.474;2022-07-11T14:12:42;28.20;99.30
13898;DHT22;7019;50.766;4.474;2022-07-11T14:15:10;28.00;99.60
13898;DHT22;7019;50.766;4.474;2022-07-11T14:17:37;27.70;99.80
13898;DHT22;7019;50.766;4.474;2022-07-11T14:20:06;28.10;99.80
13898;DHT22;7019;50.766;4.474;2022-07-11T14:22:33;28.20;99.00
13898;DHT22;7019;50.766;4.474;2022-07-11T14:25:01;28.00;99.80
13898;DHT22;7019;50.766;4.474;2022-07-11T14:27:29;27.90;99.90
13898;DHT22;7019;50.766;4.474;2022-07-11T14:29:56;27.50;99.90
13898;DHT22;7019;50.766;4.474;2022-07-11T14:32:23;27.30;99.90
13898;DHT22;7019;50.766;4.474;2022-07-11T14:34:50;26.90;99.90
13898;DHT22;7019;50.766;4.474;2022-07-11T14:37:17;26.90;99.90
13898;DHT22;7019;50.766;4.474;2022-07-11T14:39:44;27.30;99.90
13898;DHT22;7019;50.766;4.474;2022-07-11T14:42:12;27.50;99.90
13898;DHT22;7019;50.766;4.474;2022-07-11T14:44:39;27.90;99.90
13898;DHT22;7019;50.766;4.474;2022-07-11T14:47:06;27.90;99.90
13898;DHT22;7019;50.766;4.474;2022-07-11T14:49:34;28.20;99.90
13898;DHT22;7019;50.766;4.474;2022-07-11T14:52:02;28.20;99.70
13898;DHT22;7019;50.766;4.474;2022-07-11T14:54:29;27.90;99.80
13898;DHT22;7019;50.766;4.474;2022-07-11T14:56:56;27.60;99.90
13898;DHT22;7019;50.766;4.474;2022-07-11T14:59:24;27.50;99.90
13898;DHT22;7019;50.766;4.474;2022-07-11T15:01:51;27.40;99.90
13898;DHT22;7019;50.766;4.474;2022-07-11T15:04:18;27.60;99.90
13898;DHT22;7019;50.766;4.474;2022-07-11T15:06:45;27.70;99.90
13898;DHT22;7019;50.766;4.474;2022-07-11T15:09:26;27.90;99.90
13898;DHT22;7019;50.766;4.474;2022-07-11T15:12:11;28.10;99.60
13898;DHT22;7019;50.766;4.474;2022-07-11T15:14:49;28.20;98.70
13898;DHT22;7019;50.766;4.474;2022-07-11T15:17:16;28.10;98.60
13898;DHT22;7019;50.766;4.474;2022-07-11T15:19:43;28.30;99.90
13898;DHT22;7019;50.766;4.474;2022-07-11T15:22:10;28.20;99.50
13898;DHT22;7019;50.766;4.474;2022-07-11T15:24:37;28.10;99.80
13898;DHT22;7019;50.766;4.474;2022-07-11T15:27:05;27.80;99.60
13898;DHT22;7019;50.766;4.474;2022-07-11T15:29:32;27.50;99.90
13898;DHT22;7019;50.766;4.474;2022-07-11T15:32:00;27.20;99.90
13898;DHT22;7019;50.766;4.474;2022-07-11T15:34:27;26.80;99.90
13898;DHT22;7019;50.766;4.474;2022-07-11T15:36:54;26.60;99.90
13898;DHT22;7019;50.766;4.474;2022-07-11T15:39:21;26.60;99.90
13898;DHT22;7019;50.766;4.474;2022-07-11T15:41:48;26.60;99.90
13898;DHT22;7019;50.766;4.474;2022-07-11T15:44:15;26.90;99.90
13898;DHT22;7019;50.766;4.474;2022-07-11T15:46:42;26.90;99.90
13898;DHT22;7019;50.766;4.474;2022-07-11T15:49:10;26.90;99.50
13898;DHT22;7019;50.766;4.474;2022-07-11T15:51:40;27.10;99.90
13898;DHT22;7019;50.766;4.474;2022-07-11T15:54:08;27.00;99.90
13898;DHT22;7019;50.766;4.474;2022-07-11T15:56:37;26.90;99.30